Time;durP1;ratioP1;P1;durP2;ratioP2;P2;SDS_P1;SDS_P2;PMS_P1;PMS_P2;Temp;Humidity;BMP_temperature;BMP_pressure;BME280_temperature;BME280_humidity;BME280_pressure;Samples;Min_cycle;Max_cycle;Signal;HPM_P1;HPM_P2
2023/04/04 00:02:01;;;;;;;;;6.00;4.25;;;;;-147.17;100.00;40297.50;5010461;28;51068;-54
2023/04/04 00:04:26;;;;;;;;;7.00;7.00;;;;;-147.17;100.00;40918.03;5009642;28;52700;-57
2023/04/04 00:06:53;;;;;;;;;5.50;5.50;;;;;-147.17;100.00;40778.59;5013530;28;51107;-54
2023/04/04 00:09:19;;;;;;;;;7.00;7.00;;;;;-147.17;100.00;41157.63;5010918;28;52005;-57
2023/04/04 00:11:45;;;;;;;;;7.00;7.00;;;;;-147.17;100.00;41247.97;5010614;28;52699;-56
2023/04/04 00:14:11;;;;;;;;;6.50;6.50;;;;;-147.17;100.00;41522.94;5010023;28;51094;-56
2023/04/04 00:16:36;;;;;;;;;6.00;6.00;;;;;-147.17;100.00;41784.19;5012269;28;51254;-55
2023/04/04 00:19:02;;;;;;;;;4.25;4.25;;;;;-147.17;100.00;41572.06;5012240;28;51808;-55
2023/04/04 00:21:29;;;;;;;;;7.75;6.75;;;;;-147.17;100.00;41585.81;5012750;28;51188;-55
2023/04/04 00:23:55;;;;;;;;;6.00;4.25;;;;;-147.17;100.00;41860.81;5011264;28;51508;-57
2023/04/04 00:26:21;;;;;;;;;7.75;7.75;;;;;-147.17;100.00;42096.53;5012595;28;51141;-56
2023/04/04 00:28:46;;;;;;;;;7.00;7.00;;;;;-147.17;100.00;42047.41;5010848;28;51932;-55
2023/04/04 00:31:11;;;;;;;;;6.25;4.75;;;;;-147.17;100.00;42147.59;5009471;28;51039;-52
2023/04/04 00:33:37;;;;;;;;;6.00;6.00;;;;;-147.17;100.00;42135.81;5001622;28;51247;-54
2023/04/04 00:36:02;;;;;;;;;8.25;7.00;;;;;-147.17;100.00;42224.22;5009685;28;51040;-55
2023/04/04 00:38:28;;;;;;;;;4.75;4.75;;;;;-147.17;100.00;42469.78;5006734;28;52064;-55
2023/04/04 00:40:55;;;;;;;;;5.75;5.75;;;;;-147.17;100.00;42410.84;5012498;28;51179;-56
2023/04/04 00:43:21;;;;;;;;;4.25;4.25;;;;;-147.17;100.00;42157.44;5001505;28;50959;-55
2023/04/04 00:45:48;;;;;;;;;4.25;4.25;;;;;-147.17;100.00;42159.38;5006745;28;51211;-55
2023/04/04 00:48:14;;;;;;;;;6.50;5.50;;;;;-147.17;100.00;42194.75;5011065;28;52062;-56
2023/04/04 00:50:39;;;;;;;;;4.25;4.25;;;;;-147.17;100.00;42241.91;5012131;28;51234;-53
2023/04/04 00:53:05;;;;;;;;;7.75;7.25;;;;;-147.17;100.00;42218.31;5002400;28;50886;-56
2023/04/04 00:55:31;;;;;;;;;4.25;4.25;;;;;-147.17;100.00;41957.06;5006492;28;51133;-54
2023/04/04 00:57:57;;;;;;;;;6.25;6.25;;;;;-147.17;100.00;42124.03;5010543;28;51050;-55
2023/04/04 01:00:23;;;;;;;;;5.50;5.50;;;;;-147.17;100.00;42084.75;5011812;28;52213;-55
2023/04/04 01:02:49;;;;;;;;;6.00;6.00;;;;;-147.17;100.00;42037.59;5012299;28;51124;-56
2023/04/04 01:05:15;;;;;;;;;5.00;5.00;;;;;-147.17;100.00;42163.31;5011056;28;51178;-57
2023/04/04 01:07:40;;;;;;;;;6.50;6.50;;;;;-147.17;100.00;41939.38;5009314;28;52023;-55
2023/04/04 01:10:06;;;;;;;;;6.00;6.00;;;;;-147.17;100.00;42049.38;5011298;28;51210;-56
2023/04/04 01:12:33;;;;;;;;;5.00;5.00;;;;;-147.17;100.00;42509.09;5011818;28;51136;-55
2023/04/04 01:14:58;;;;;;;;;6.00;5.00;;;;;-147.17;100.00;42236.00;5009501;28;51163;-55
2023/04/04 01:17:26;;;;;;;;;6.25;5.75;;;;;-147.17;100.00;42198.69;5009749;28;51964;-56
2023/04/04 01:20:12;;;;;;;;;7.75;6.75;;;;;-147.17;100.00;42004.19;5012085;28;51142;-56
2023/04/04 01:22:39;;;;;;;;;6.75;6.75;;;;;-147.17;100.00;42072.97;5014323;28;51187;-57
2023/04/04 01:25:06;;;;;;;;;6.00;4.75;;;;;-147.17;100.00;41801.88;5007534;28;51056;-54
2023/04/04 01:27:32;;;;;;;;;7.00;6.00;;;;;-147.17;100.00;41723.31;5013396;28;51031;-56
2023/04/04 01:29:57;;;;;;;;;7.00;6.75;;;;;-147.17;100.00;41438.50;5015210;28;50884;-55
2023/04/04 01:32:49;;;;;;;;;8.00;7.00;;;;;-147.17;100.00;41037.84;5015014;28;50961;-56
2023/04/04 01:35:21;;;;;;;;;7.00;7.00;;;;;-147.17;100.00;40721.66;5006173;28;51461;-57
2023/04/04 01:38:11;;;;;;;;;6.75;5.00;;;;;-147.17;100.00;40572.41;5013116;28;51155;-55
2023/04/04 01:40:37;;;;;;;;;6.75;6.75;;;;;-147.17;100.00;40676.50;5012848;28;51276;-56
2023/04/04 01:43:03;;;;;;;;;6.50;6.00;;;;;-147.17;100.00;40256.28;5011951;28;51090;-56
2023/04/04 01:45:29;;;;;;;;;12.00;8.00;;;;;-147.17;100.00;39728.13;5013932;28;50945;-54
2023/04/04 01:47:55;;;;;;;;;11.75;11.00;;;;;-147.17;100.00;39665.31;5013254;28;51941;-55
2023/04/04 01:50:21;;;;;;;;;8.00;7.25;;;;;-147.17;100.00;40336.78;5012713;28;51317;-51
2023/04/04 01:52:47;;;;;;;;;10.00;8.00;;;;;-147.17;100.00;41214.59;5013163;28;51217;-56
2023/04/04 01:55:12;;;;;;;;;3.00;3.00;;;;;-147.17;100.00;41497.41;5010898;28;51364;-55
2023/04/04 01:57:38;;;;;;;;;7.25;6.25;;;;;-147.17;100.00;41770.44;5010354;28;51849;-55
2023/04/04 02:00:04;;;;;;;;;9.50;8.50;;;;;-147.17;100.00;41625.09;5004408;28;51199;-56
2023/04/04 02:02:30;;;;;;;;;11.00;10.00;;;;;-147.17;100.00;41597.59;5012293;28;51296;-56
2023/04/04 02:04:55;;;;;;;;;7.00;7.00;;;;;-147.17;100.00;41754.72;5012850;28;51385;-56
2023/04/04 02:07:20;;;;;;;;;8.00;7.00;;;;;-147.17;100.00;42120.09;5005216;28;51746;-56
2023/04/04 02:09:46;;;;;;;;;6.00;6.00;;;;;-147.17;100.00;42057.25;5013650;28;51235;-56
2023/04/04 02:12:11;;;;;;;;;5.00;5.00;;;;;-147.17;100.00;41469.91;5014013;28;50974;-54
2023/04/04 02:14:36;;;;;;;;;8.50;8.00;;;;;-147.17;100.00;42082.78;5003522;28;51315;-54
2023/04/04 02:17:02;;;;;;;;;7.25;6.75;;;;;-147.17;100.00;42210.47;5012303;28;51125;-56
2023/04/04 02:19:27;;;;;;;;;6.75;6.00;;;;;-147.17;100.00;42640.72;5013253;28;50894;-55
2023/04/04 02:21:53;;;;;;;;;7.25;7.25;;;;;-147.17;100.00;42224.22;5013892;28;50960;-55
2023/04/04 02:24:18;;;;;;;;;7.00;7.00;;;;;-147.17;100.00;42045.44;5014040;28;50940;-55
2023/04/04 02:26:43;;;;;;;;;9.00;7.75;;;;;-147.17;100.00;41790.09;5012581;28;56481;-56
2023/04/04 02:29:09;;;;;;;;;8.50;7.50;;;;;-147.17;100.00;41079.09;5013084;28;51017;-56
2023/04/04 02:31:34;;;;;;;;;7.00;7.00;;;;;-147.17;100.00;40588.13;5013520;28;51003;-56
2023/04/04 02:34:00;;;;;;;;;6.00;5.75;;;;;-147.17;100.00;40379.97;5011690;28;50957;-56
2023/04/04 02:36:26;;;;;;;;;10.50;10.00;;;;;-147.17;100.00;39665.31;5013175;28;52824;-56
2023/04/04 02:38:52;;;;;;;;;7.50;7.00;;;;;-147.17;100.00;39553.41;5001615;28;51156;-54
2023/04/04 02:41:17;;;;;;;;;10.50;10.00;;;;;-147.17;100.00;38613.16;5013894;28;51007;-55
2023/04/04 02:43:42;;;;;;;;;7.75;7.75;;;;;-147.17;100.00;38142.13;5012637;28;51158;-56
2023/04/04 02:46:08;;;;;;;;;7.75;7.75;;;;;-147.17;100.00;37600.53;5010870;28;51876;-55
2023/04/04 02:48:33;;;;;;;;;3.00;2.50;;;;;-147.17;100.00;37080.59;5012775;28;60014;-55
2023/04/04 02:50:58;;;;;;;;;7.75;7.75;;;;;-147.17;100.00;36858.88;5012662;28;51446;-56
2023/04/04 02:53:24;;;;;;;;;7.00;7.00;;;;;-147.17;100.00;36749.03;5014006;28;51158;-55
2023/04/04 02:55:49;;;;;;;;;9.50;8.50;;;;;-147.17;100.00;36211.53;5012163;28;53236;-56
2023/04/04 02:58:15;;;;;;;;;11.00;8.00;;;;;-147.17;100.00;36186.03;5013421;28;51102;-55
2023/04/04 03:00:40;;;;;;;;;7.00;7.00;;;;;-147.17;100.00;36086.00;5014062;28;51004;-56
2023/04/04 03:03:06;;;;;;;;;7.50;6.25;;;;;-147.17;100.00;35917.31;5013723;28;51056;-55
2023/04/04 03:05:31;;;;;;;;;8.00;7.00;;;;;-147.17;100.00;35219.16;5011380;28;51686;-57
2023/04/04 03:07:58;;;;;;;;;9.50;9.50;;;;;-147.17;100.00;35107.38;5013571;28;50867;-57
2023/04/04 03:10:31;;;;;;;;;9.50;7.50;;;;;-147.17;100.00;35319.16;5013724;28;51121;-53
2023/04/04 03:12:57;;;;;;;;;8.50;8.50;;;;;-147.17;100.00;34866.19;5004461;28;51226;-57
2023/04/04 03:15:22;;;;;;;;;8.00;7.75;;;;;-147.17;100.00;34178.00;5012276;28;51102;-55
2023/04/04 03:17:48;;;;;;;;;7.25;7.25;;;;;-147.17;100.00;33219.44;5011145;28;50981;-56
2023/04/04 03:20:15;;;;;;;;;9.00;7.75;;;;;-147.17;100.00;32980.31;5013557;28;51098;-54
2023/04/04 03:22:40;;;;;;;;;10.25;9.50;;;;;-147.17;100.00;32572.69;5012399;28;51077;-55
2023/04/04 03:25:06;;;;;;;;;10.50;10.25;;;;;-147.17;100.00;33801.59;5001300;28;51033;-55
2023/04/04 03:27:32;;;;;;;;;9.75;9.75;;;;;-147.17;100.00;33007.75;5011385;28;51018;-55
2023/04/04 03:29:58;;;;;;;;;7.50;7.50;;;;;-147.17;100.00;32188.59;5013156;28;51059;-58
2023/04/04 03:32:24;;;;;;;;;6.75;6.75;;;;;-147.17;100.00;32490.38;5013039;28;50997;-54
2023/04/04 03:34:50;;;;;;;;;6.50;5.50;;;;;-147.17;100.00;31447.97;5012031;28;51020;-56
2023/04/04 03:37:16;;;;;;;;;7.00;6.25;;;;;-147.17;100.00;31757.53;5012215;28;51008;-54
2023/04/04 03:39:41;;;;;;;;;9.75;9.75;;;;;-147.17;100.00;30938.66;5012144;28;51752;-56
2023/04/04 03:42:07;;;;;;;;;10.00;8.25;;;;;-147.17;100.00;30437.22;5012877;28;51114;-56
2023/04/04 03:44:32;;;;;;;;;14.50;9.25;;;;;-147.17;100.00;30186.50;5009657;28;51851;-57
2023/04/04 03:46:57;;;;;;;;;7.75;6.75;;;;;-147.17;100.00;29685.16;5004581;28;51178;-56
2023/04/04 03:49:23;;;;;;;;;7.25;7.00;;;;;-147.17;100.00;29434.53;5012264;28;50976;-56
2023/04/04 03:51:48;;;;;;;;;8.00;7.00;;;;;-147.17;100.00;29685.16;5013170;28;51079;-56
2023/04/04 03:54:14;;;;;;;;;7.00;6.25;;;;;-147.17;100.00;30186.50;5011905;28;51981;-55
2023/04/04 03:56:40;;;;;;;;;9.75;8.25;;;;;-147.17;100.00;31984.81;5011303;28;51096;-56
2023/04/04 03:59:05;;;;;;;;;8.25;8.00;;;;;-147.17;100.00;31287.34;5011964;28;51225;-56
2023/04/04 04:01:31;;;;;;;;;8.25;8.25;;;;;-147.17;100.00;30437.22;5003660;28;51248;-57
2023/04/04 04:03:56;;;;;;;;;8.00;7.25;;;;;-147.17;100.00;29685.16;5008886;28;51810;-58
2023/04/04 04:06:22;;;;;;;;;6.50;6.50;;;;;-147.17;100.00;28682.69;5013312;28;51111;-56
2023/04/04 04:08:47;;;;;;;;;6.25;6.25;;;;;-147.17;100.00;28181.53;5012783;28;51285;-56
2023/04/04 04:11:13;;;;;;;;;8.25;7.00;;;;;-147.17;100.00;28432.09;5006528;28;51244;-54
2023/04/04 04:13:39;;;;;;;;;7.25;7.25;;;;;-147.17;100.00;28432.09;5010515;28;51859;-57
2023/04/04 04:16:04;;;;;;;;;8.75;7.00;;;;;-147.17;100.00;28682.69;5012587;28;51104;-59
2023/04/04 04:18:31;;;;;;;;;7.75;6.75;;;;;-147.17;100.00;27680.44;5012553;28;51250;-57
2023/04/04 04:21:01;;;;;;;;;9.75;9.50;;;;;-147.17;100.00;26928.94;5011903;28;51066;-55
2023/04/04 04:23:27;;;;;;;;;5.00;5.00;;;;;-147.17;100.00;26428.03;5012455;28;51203;-55
2023/04/04 04:25:52;;;;;;;;;8.50;7.00;;;;;-147.17;100.00;25176.00;5010989;28;50946;-56
2023/04/04 04:28:18;;;;;;;;;6.75;6.25;;;;;-147.17;100.00;24174.66;5011647;28;51159;-57
2023/04/04 04:30:44;;;;;;;;;9.50;8.25;;;;;-147.17;100.00;23423.81;5007459;28;51134;-56
2023/04/04 04:33:09;;;;;;;;;11.50;9.00;;;;;-147.17;100.00;23173.59;5012188;28;51690;-57
2023/04/04 04:35:38;;;;;;;;;10.75;9.75;;;;;-147.17;100.00;23173.59;5011658;28;51010;-55
2023/04/04 04:38:05;;;;;;;;;7.00;6.50;;;;;-147.17;100.00;22923.34;5012250;28;51064;-55
2023/04/04 04:40:31;;;;;;;;;7.00;7.00;;;;;-147.17;100.00;22673.13;5011692;28;51222;-56
2023/04/04 04:42:56;;;;;;;;;9.50;9.50;;;;;-147.17;100.00;23423.81;5012143;28;51677;-54
2023/04/04 04:45:22;;;;;;;;;10.00;7.50;;;;;-147.17;100.00;23674.09;5009499;28;51148;-54
2023/04/04 04:47:47;;;;;;;;;6.25;5.00;;;;;-147.17;100.00;23173.59;5010820;28;51003;-56
2023/04/04 04:50:12;;;;;;;;;7.00;7.00;;;;;-147.17;100.00;22923.34;5010922;28;51406;-56
2023/04/04 04:52:38;;;;;;;;;6.50;6.50;;;;;-147.17;100.00;23173.59;5012253;28;52435;-56
2023/04/04 04:55:04;;;;;;;;;7.00;7.00;;;;;-147.17;100.00;23423.81;5011172;28;51082;-56
2023/04/04 04:57:30;;;;;;;;;7.00;7.00;;;;;-147.17;100.00;24925.63;5017328;28;51098;-57
2023/04/04 04:59:55;;;;;;;;;7.00;6.50;;;;;-147.17;100.00;24925.63;5011779;28;51240;-55
2023/04/04 05:02:20;;;;;;;;;10.00;8.75;;;;;-147.17;100.00;24675.28;5012873;28;51308;-56
2023/04/04 05:04:46;;;;;;;;;6.75;6.75;;;;;-147.17;100.00;24174.66;5012144;28;51169;-56
2023/04/04 05:07:11;;;;;;;;;11.50;10.00;;;;;-147.17;100.00;24925.63;5015591;28;51107;-55
2023/04/04 05:09:37;;;;;;;;;6.00;6.00;;;;;-147.17;100.00;24174.66;5014738;28;50899;-57
2023/04/04 05:12:03;;;;;;;;;8.00;8.00;;;;;-147.17;100.00;23423.81;5015020;28;51009;-56
2023/04/04 05:14:28;;;;;;;;;8.50;8.50;;;;;-147.17;100.00;23423.81;5015170;28;51091;-56
2023/04/04 05:16:53;;;;;;;;;10.00;7.75;;;;;-147.17;100.00;23674.09;5013973;28;51086;-56
2023/04/04 05:19:19;;;;;;;;;9.00;7.00;;;;;-147.17;100.00;22923.34;5014170;28;51317;-56
2023/04/04 05:21:44;;;;;;;;;9.00;8.50;;;;;-147.17;100.00;22923.34;5012897;28;67431;-57
2023/04/04 05:24:10;;;;;;;;;9.00;7.00;;;;;-147.17;100.00;22673.13;5010024;28;50917;-54
2023/04/04 05:26:35;;;;;;;;;6.50;6.50;;;;;-147.17;100.00;22172.75;5003356;28;51214;-55
2023/04/04 05:29:01;;;;;;;;;6.75;6.75;;;;;-147.17;100.00;21672.44;5009202;28;51251;-53
2023/04/04 05:31:26;;;;;;;;;6.00;6.00;;;;;-147.17;100.00;22923.34;5012352;28;52791;-54
2023/04/04 05:33:52;;;;;;;;;6.75;6.75;;;;;-147.17;100.00;21922.59;5012531;28;51054;-53
2023/04/04 05:36:18;;;;;;;;;7.50;7.00;;;;;-147.17;100.00;21922.59;5011152;28;51242;-54
2023/04/04 05:38:43;;;;;;;;;7.50;7.50;;;;;-147.17;100.00;21922.59;5013490;28;51183;-55
2023/04/04 05:41:08;;;;;;;;;9.00;7.00;;;;;-147.17;100.00;21672.44;5009469;28;51467;-55
2023/04/04 05:43:34;;;;;;;;;7.50;7.00;;;;;-147.17;100.00;21922.59;5007651;28;51168;-54
2023/04/04 05:45:59;;;;;;;;;9.00;7.00;;;;;-147.17;100.00;21422.31;5008831;28;51190;-53
2023/04/04 05:48:24;;;;;;;;;9.50;8.00;;;;;-147.17;100.00;20171.88;5005706;28;51226;-53
2023/04/04 05:50:50;;;;;;;;;10.50;10.50;;;;;-147.17;100.00;20922.09;5012893;28;51007;-55
2023/04/04 05:53:15;;;;;;;;;7.50;7.50;;;;;-147.17;100.00;20922.09;5013268;28;51368;-55
2023/04/04 05:55:41;;;;;;;;;7.50;7.50;;;;;-147.17;100.00;20672.00;5014205;28;51152;-54
2023/04/04 05:58:06;;;;;;;;;7.00;6.00;;;;;-147.17;100.00;21422.31;5013387;28;51099;-53
2023/04/04 06:00:31;;;;;;;;;11.25;7.50;;;;;-147.17;100.00;21672.44;5014440;28;53462;-54
2023/04/04 06:03:00;;;;;;;;;2.25;1.00;;;;;-147.17;100.00;23173.59;5010159;28;51232;-56
2023/04/04 06:05:25;;;;;;;;;6.50;6.50;;;;;-147.17;100.00;23674.09;5012684;28;51271;-54
2023/04/04 06:07:51;;;;;;;;;8.50;6.50;;;;;-147.17;100.00;23924.38;5011507;28;51418;-53
2023/04/04 06:10:16;;;;;;;;;7.00;7.00;;;;;-147.17;100.00;24675.28;5014341;28;51824;-57
2023/04/04 06:12:41;;;;;;;;;9.75;8.50;;;;;-147.17;100.00;25176.00;5014126;28;51156;-53
2023/04/04 06:15:07;;;;;;;;;8.50;8.00;;;;;-147.17;100.00;24424.97;5014418;28;51103;-54
2023/04/04 06:17:32;;;;;;;;;10.00;8.50;;;;;-147.17;100.00;23423.81;5014274;28;51357;-53
2023/04/04 06:19:58;;;;;;;;;9.00;9.00;;;;;-147.17;100.00;21172.19;4996303;28;53754;-54
2023/04/04 06:22:23;;;;;;;;;7.00;6.75;;;;;-147.17;100.00;16423.03;5007790;28;51247;-55
2023/04/04 06:24:48;;;;;;;;;6.00;6.00;;;;;-147.17;100.00;12677.78;5012278;28;51244;-55
2023/04/04 06:27:14;;;;;;;;;8.00;7.75;;;;;-147.17;100.00;14425.13;5001455;28;51070;-52
2023/04/04 06:29:40;;;;;;;;;7.50;7.25;;;;;-147.17;100.00;17422.38;5012110;28;52048;-53
2023/04/04 06:32:05;;;;;;;;;9.50;9.50;;;;;-147.17;100.00;31314.75;5013302;28;51000;-54
2023/04/04 06:34:31;;;;;;;;;9.75;9.00;;;;;-147.17;100.00;35242.69;5012076;28;50983;-55
2023/04/04 06:36:56;;;;;;;;;8.50;8.50;;;;;-147.17;100.00;38897.75;5013516;28;51241;-55
2023/04/04 06:39:22;;;;;;;;;9.00;9.00;;;;;-147.17;100.00;40921.97;5013362;28;51332;-55
2023/04/04 06:41:47;;;;;;;;;10.00;10.00;;;;;-147.17;100.00;42905.97;5011944;28;51037;-55
2023/04/04 06:44:13;;;;;;;;;11.25;10.50;;;;;-147.17;100.00;45115.06;5013552;28;51003;-55
2023/04/04 06:46:38;;;;;;;;;8.50;8.50;;;;;-147.17;100.00;45820.91;5006428;28;51416;-54
2023/04/04 06:49:05;;;;;;;;;8.00;7.00;;;;;-147.17;100.00;46178.78;5009007;28;51077;-55
2023/04/04 06:51:32;;;;;;;;;8.50;8.50;;;;;-147.17;100.00;46279.06;5013699;28;50951;-55
2023/04/04 06:53:58;;;;;;;;;9.00;8.50;;;;;-147.17;100.00;46212.22;5012229;28;51285;-56
2023/04/04 06:56:25;;;;;;;;;11.25;11.00;;;;;-147.17;100.00;46491.47;5013118;28;50979;-54
2023/04/04 06:58:51;;;;;;;;;9.00;9.00;;;;;-147.17;100.00;46316.44;5011446;28;51975;-54
2023/04/04 07:01:17;;;;;;;;;7.00;7.00;;;;;-147.17;100.00;46656.66;5013363;28;50928;-55
2023/04/04 07:03:43;;;;;;;;;7.00;7.00;;;;;-147.17;100.00;46593.72;5013404;28;51320;-54
2023/04/04 07:06:09;;;;;;;;;8.25;8.25;;;;;-147.17;100.00;46526.88;5013474;28;51155;-55
2023/04/04 07:08:34;;;;;;;;;9.00;9.00;;;;;-147.17;100.00;46562.28;5009196;28;52169;-55
2023/04/04 07:11:00;;;;;;;;;8.00;8.00;;;;;-147.17;100.00;46595.69;5013342;28;50962;-55
2023/04/04 07:13:25;;;;;;;;;8.50;8.50;;;;;-147.17;100.00;46576.03;5012572;28;51007;-56
2023/04/04 07:15:51;;;;;;;;;8.00;7.00;;;;;-147.17;100.00;46656.66;5013155;28;51280;-54
2023/04/04 07:18:16;;;;;;;;;8.50;8.00;;;;;-147.17;100.00;46652.75;5008640;28;52942;-55
2023/04/04 07:20:42;;;;;;;;;5.33;5.00;;;;;-147.17;100.00;46882.84;5013166;28;50956;-53
2023/04/04 07:23:10;;;;;;;;;4.67;4.67;;;;;-147.17;100.00;46896.63;5012557;28;51312;-54
2023/04/04 07:25:36;;;;;;;;;6.33;6.33;;;;;-147.17;100.00;47018.56;5012829;28;51768;-55
2023/04/04 07:28:02;;;;;;;;;10.33;9.67;;;;;-147.17;100.00;46888.75;5012729;28;51379;-54
2023/04/04 07:30:29;;;;;;;;;9.75;9.00;;;;;-147.17;100.00;47014.63;5012871;28;50944;-56
2023/04/04 07:32:58;;;;;;;;;8.33;7.67;;;;;-147.17;100.00;46955.63;5013171;28;50909;-55
2023/04/04 07:35:23;;;;;;;;;9.25;9.25;;;;;-147.17;100.00;46833.69;5012628;28;51068;-54
2023/04/04 07:37:49;;;;;;;;;4.67;4.67;;;;;-147.17;100.00;46810.06;5012668;28;51918;-55
2023/04/04 07:40:15;;;;;;;;;7.25;7.25;;;;;-147.17;100.00;46922.19;5012850;28;50953;-56
2023/04/04 07:42:44;;;;;;;;;10.00;9.00;;;;;-147.17;100.00;46827.78;5012729;28;51068;-55
2023/04/04 07:45:10;;;;;;;;;8.67;8.33;;;;;-147.17;100.00;46558.34;5012731;28;51253;-56
2023/04/04 07:47:36;;;;;;;;;8.67;8.00;;;;;-147.17;100.00;46515.06;4999294;28;54431;-55
2023/04/04 07:50:02;;;;;;;;;4.00;4.00;;;;;-147.17;100.00;46650.78;5011748;28;51158;-55
2023/04/04 07:52:28;;;;;;;;;7.00;7.00;;;;;-147.17;100.00;46723.53;5011488;28;51064;-54
2023/04/04 07:54:54;;;;;;;;;7.67;7.00;;;;;-147.17;100.00;46839.56;5009442;28;51725;-54
2023/04/04 07:57:19;;;;;;;;;8.33;8.00;;;;;-147.17;100.00;46694.03;5010124;28;53855;-55
2023/04/04 07:59:46;;;;;;;;;8.33;8.00;;;;;-147.17;100.00;46377.41;5012356;28;50893;-55
2023/04/04 08:02:11;;;;;;;;;8.00;6.67;;;;;-147.17;100.00;45891.69;5012204;28;52848;-56
2023/04/04 08:04:37;;;;;;;;;8.67;8.67;;;;;-147.17;100.00;45370.66;4992167;28;51663;-56
2023/04/04 08:07:02;;;;;;;;;7.67;7.67;;;;;-147.17;100.00;45028.56;5011323;28;51148;-56
2023/04/04 08:09:33;;;;;;;;;7.33;7.33;;;;;-147.17;100.00;44625.56;5012586;28;50991;-57
2023/04/04 08:11:58;;;;;;;;;6.00;6.00;;;;;-147.17;100.00;44356.28;5011244;28;51239;-56
2023/04/04 08:14:24;;;;;;;;;9.67;8.00;;;;;-147.17;100.00;44079.16;5012184;28;51129;-56
2023/04/04 08:16:50;;;;;;;;;7.00;7.00;;;;;-147.17;100.00;43697.88;5012019;28;52767;-56
2023/04/04 08:19:16;;;;;;;;;8.00;8.00;;;;;-147.17;100.00;43538.69;5012375;28;51056;-56
2023/04/04 08:21:41;;;;;;;;;9.00;8.00;;;;;-147.17;100.00;43597.66;5009536;28;51068;-56
2023/04/04 08:24:07;;;;;;;;;8.00;7.67;;;;;-147.17;100.00;43534.75;5009454;28;51461;-56
2023/04/04 08:26:32;;;;;;;;;6.00;6.00;;;;;-147.17;100.00;43350.03;5001701;28;52059;-56
2023/04/04 08:28:57;;;;;;;;;9.25;8.75;;;;;-147.17;100.00;43405.06;5012227;28;51037;-55
2023/04/04 08:31:23;;;;;;;;;7.33;7.00;;;;;-147.17;100.00;43570.13;5015672;28;51702;-55
2023/04/04 08:33:48;;;;;;;;;9.00;8.00;;;;;-147.17;100.00;43633.03;5016076;28;51090;-56
2023/04/04 08:36:15;;;;;;;;;9.00;9.00;;;;;-147.17;100.00;43794.16;5015248;28;51918;-55
2023/04/04 08:38:40;;;;;;;;;9.00;8.00;;;;;-147.17;100.00;43672.31;5015221;28;50950;-56
2023/04/04 08:41:06;;;;;;;;;6.67;6.67;;;;;-147.17;100.00;43955.31;5014317;28;50952;-56
2023/04/04 08:43:34;;;;;;;;;8.00;8.00;;;;;-147.17;100.00;43729.31;5015357;28;50986;-56
2023/04/04 08:46:03;;;;;;;;;9.33;9.00;;;;;-147.17;100.00;43389.34;5015265;28;51714;-55
2023/04/04 08:48:29;;;;;;;;;5.00;5.00;;;;;-147.17;100.00;42894.16;5012767;28;51123;-55
2023/04/04 08:50:58;;;;;;;;;8.33;8.00;;;;;-147.17;100.00;42353.88;5015201;28;50901;-56
2023/04/04 08:53:25;;;;;;;;;10.33;10.33;;;;;-147.17;100.00;42084.75;5015460;28;51210;-56
2023/04/04 08:55:53;;;;;;;;;7.00;7.00;;;;;-147.17;100.00;42092.59;5014534;28;52785;-57
2023/04/04 08:58:18;;;;;;;;;7.00;7.00;;;;;-147.17;100.00;42041.53;5013565;28;51057;-56
2023/04/04 09:00:44;;;;;;;;;11.33;9.33;;;;;-147.17;100.00;42139.75;5015211;28;51011;-56
2023/04/04 09:03:25;;;;;;;;;8.00;8.00;;;;;-147.17;100.00;41962.94;5014977;28;51174;-59
2023/04/04 09:05:51;;;;;;;;;9.00;9.00;;;;;-147.17;100.00;41768.47;5007013;28;50980;-58
2023/04/04 09:08:18;;;;;;;;;5.33;5.00;;;;;-147.17;100.00;41367.78;5014969;28;51013;-56
2023/04/04 09:10:45;;;;;;;;;7.00;7.00;;;;;-147.17;100.00;41094.78;5015263;28;50871;-57
2023/04/04 09:13:11;;;;;;;;;8.67;8.67;;;;;-147.17;100.00;41004.44;5014934;28;51293;-56
2023/04/04 09:15:40;;;;;;;;;9.67;8.33;;;;;-147.17;100.00;40855.19;5014918;28;51293;-56
2023/04/04 09:18:05;;;;;;;;;8.00;7.67;;;;;-147.17;100.00;40890.53;5014424;28;51201;-57
2023/04/04 09:20:40;;;;;;;;;8.00;8.00;;;;;-147.17;100.00;41411.00;5013686;28;51088;-57
2023/04/04 09:23:10;;;;;;;;;9.00;8.33;;;;;-147.17;100.00;41560.28;5014966;28;51098;-56
2023/04/04 09:25:37;;;;;;;;;7.00;7.00;;;;;-147.17;100.00;41377.59;5013619;28;52782;-57
2023/04/04 09:28:04;;;;;;;;;8.67;8.00;;;;;-147.17;100.00;41090.88;5014486;28;51131;-56
2023/04/04 09:30:31;;;;;;;;;7.00;7.00;;;;;-147.17;100.00;41725.25;5014654;28;51126;-57
2023/04/04 09:33:00;;;;;;;;;8.00;7.00;;;;;-147.17;100.00;42120.09;5014862;28;51394;-57
2023/04/04 09:35:26;;;;;;;;;7.00;7.00;;;;;-147.17;100.00;41819.56;5014440;28;51850;-56
2023/04/04 09:37:52;;;;;;;;;8.00;8.00;;;;;-147.17;100.00;41153.72;5014599;28;51043;-56
2023/04/04 09:40:18;;;;;;;;;8.67;7.00;;;;;-147.17;100.00;40649.00;5012719;28;51028;-57
2023/04/04 09:42:43;;;;;;;;;6.33;6.33;;;;;-147.17;100.00;40209.16;5009557;28;51449;-58
2023/04/04 09:45:09;;;;;;;;;6.00;6.00;;;;;-147.17;100.00;39704.56;5010577;28;54376;-55
2023/04/04 09:47:40;;;;;;;;;6.00;6.00;;;;;-147.17;100.00;39520.03;5009697;28;51197;-57
2023/04/04 09:50:06;;;;;;;;;7.33;7.33;;;;;-147.17;100.00;39673.16;5013967;28;51110;-57
2023/04/04 09:52:36;;;;;;;;;5.33;5.33;;;;;-147.17;100.00;39380.66;4978737;28;51411;-57
2023/04/04 09:55:04;;;;;;;;;7.00;7.00;;;;;-147.17;100.00;38982.16;5009258;28;51267;-57
2023/04/04 09:57:32;;;;;;;;;7.00;6.67;;;;;-147.17;100.00;38703.44;5004568;28;51334;-57
2023/04/04 10:00:03;;;;;;;;;8.33;8.33;;;;;-147.17;100.00;38401.19;5012839;28;51149;-56
2023/04/04 10:02:32;;;;;;;;;7.00;6.00;;;;;-147.17;100.00;38430.63;5009852;28;51214;-56
2023/04/04 10:04:58;;;;;;;;;7.67;7.33;;;;;-147.17;100.00;38884.00;5014349;28;51063;-57
2023/04/04 10:07:28;;;;;;;;;7.00;7.00;;;;;-147.17;100.00;39343.34;5013157;28;51103;-57
2023/04/04 10:09:54;;;;;;;;;7.00;7.00;;;;;-147.17;100.00;39946.06;5012488;28;51370;-57
2023/04/04 10:12:26;;;;;;;;;8.00;7.00;;;;;-147.17;100.00;40146.31;5013914;28;51357;-57
2023/04/04 10:14:59;;;;;;;;;8.00;8.00;;;;;-147.17;100.00;40896.44;5011693;28;52217;-57
2023/04/04 10:17:46;;;;;;;;;6.00;6.00;;;;;-147.17;100.00;41740.97;5012429;28;51064;-56
2023/04/04 10:20:13;;;;;;;;;6.00;5.33;;;;;-147.17;100.00;42072.97;5013637;28;51213;-58
2023/04/04 10:22:39;;;;;;;;;7.33;7.00;;;;;-147.17;100.00;42601.41;5011392;28;51286;-58
2023/04/04 10:25:06;;;;;;;;;5.67;5.00;;;;;-147.17;100.00;42709.47;5007810;28;52787;-58
2023/04/04 10:27:33;;;;;;;;;5.00;5.00;;;;;-147.17;100.00;42458.00;5013414;28;51160;-57
2023/04/04 10:30:02;;;;;;;;;8.33;7.67;;;;;-147.17;100.00;42161.34;5013557;28;51142;-58
2023/04/04 10:32:37;;;;;;;;;7.00;7.00;;;;;-147.17;100.00;41297.09;5013987;28;51062;-58
2023/04/04 10:35:06;;;;;;;;;9.33;9.00;;;;;-147.17;100.00;39826.28;5013668;28;50983;-57
2023/04/04 10:37:39;;;;;;;;;7.00;7.00;;;;;-147.17;100.00;38501.28;5013582;28;51182;-57
2023/04/04 10:40:10;;;;;;;;;8.67;8.67;;;;;-147.17;100.00;37082.53;5013672;28;50943;-57
2023/04/04 10:42:39;;;;;;;;;9.33;9.33;;;;;-147.17;100.00;36344.94;5012244;28;52272;-58
2023/04/04 10:45:08;;;;;;;;;9.33;9.33;;;;;-147.17;100.00;35354.47;5013392;28;52054;-58
2023/04/04 10:47:34;;;;;;;;;15.75;15.00;;;;;-147.17;100.00;34078.00;5011831;28;51132;-57
2023/04/04 10:50:01;;;;;;;;;7.67;7.67;;;;;-147.17;100.00;33082.22;5001463;28;51251;-58
2023/04/04 10:52:29;;;;;;;;;7.33;7.33;;;;;-147.17;100.00;32948.97;5011597;28;51438;-58
2023/04/04 10:54:59;;;;;;;;;6.00;6.00;;;;;-147.17;100.00;33685.94;5012840;28;51106;-58
2023/04/04 10:57:26;;;;;;;;;10.00;9.00;;;;;-147.17;100.00;33932.94;5012234;28;50975;-56
2023/04/04 11:00:11;;;;;;;;;9.33;9.33;;;;;-147.17;100.00;33634.97;5013033;28;50962;-57
2023/04/04 11:02:44;;;;;;;;;7.00;7.00;;;;;-147.17;100.00;32643.22;5011596;28;51001;-57
2023/04/04 11:05:22;;;;;;;;;9.00;9.00;;;;;-147.17;100.00;33525.19;5012693;28;51816;-57